sensor_id;sensor_type;location;lat;lon;timestamp;P1;durP1;ratioP1;P2;durP2;ratioP2
19456;SDS011;9867;48.094;11.478;2023-07-29T00:01:15;4.27;;;3.50;;
19456;SDS011;9867;48.094;11.478;2023-07-29T00:03:43;4.33;;;3.00;;
19456;SDS011;9867;48.094;11.478;2023-07-29T00:06:11;6.07;;;3.07;;
19456;SDS011;9867;48.094;11.478;2023-07-29T00:08:39;3.20;;;2.90;;
19456;SDS011;9867;48.094;11.478;2023-07-29T00:11:09;4.63;;;3.07;;
19456;SDS011;9867;48.094;11.478;2023-07-29T00:13:37;2.90;;;2.70;;
19456;SDS011;9867;48.094;11.478;2023-07-29T00:16:05;3.00;;;2.77;;
19456;SDS011;9867;48.094;11.478;2023-07-29T00:18:33;3.27;;;2.97;;
19456;SDS011;9867;48.094;11.478;2023-07-29T00:21:01;3.07;;;2.77;;
19456;SDS011;9867;48.094;11.478;2023-07-29T00:23:31;3.30;;;3.00;;
19456;SDS011;9867;48.094;11.478;2023-07-29T00:25:59;3.57;;;2.80;;
19456;SDS011;9867;48.094;11.478;2023-07-29T00:28:29;2.90;;;2.70;;
19456;SDS011;9867;48.094;11.478;2023-07-29T00:30:58;2.97;;;2.73;;
19456;SDS011;9867;48.094;11.478;2023-07-29T00:33:26;4.10;;;2.70;;
19456;SDS011;9867;48.094;11.478;2023-07-29T00:35:54;2.70;;;2.50;;
19456;SDS011;9867;48.094;11.478;2023-07-29T00:38:22;3.77;;;2.50;;
19456;SDS011;9867;48.094;11.478;2023-07-29T00:40:50;3.37;;;3.03;;
19456;SDS011;9867;48.094;11.478;2023-07-29T00:43:19;3.77;;;2.60;;
19456;SDS011;9867;48.094;11.478;2023-07-29T00:45:48;3.00;;;2.70;;
19456;SDS011;9867;48.094;11.478;2023-07-29T00:48:17;3.10;;;2.40;;
19456;SDS011;9867;48.094;11.478;2023-07-29T00:50:46;2.70;;;2.50;;
19456;SDS011;9867;48.094;11.478;2023-07-29T00:53:14;3.00;;;2.57;;
19456;SDS011;9867;48.094;11.478;2023-07-29T00:55:42;2.90;;;2.70;;
19456;SDS011;9867;48.094;11.478;2023-07-29T00:58:10;3.10;;;2.70;;
19456;SDS011;9867;48.094;11.478;2023-07-29T01:00:39;5.40;;;2.50;;
19456;SDS011;9867;48.094;11.478;2023-07-29T01:03:09;4.13;;;2.70;;
19456;SDS011;9867;48.094;11.478;2023-07-29T01:05:40;3.73;;;2.70;;
19456;SDS011;9867;48.094;11.478;2023-07-29T01:08:17;2.60;;;2.40;;
19456;SDS011;9867;48.094;11.478;2023-07-29T01:10:58;3.10;;;2.60;;
19456;SDS011;9867;48.094;11.478;2023-07-29T01:13:44;2.90;;;2.60;;
19456;SDS011;9867;48.094;11.478;2023-07-29T01:16:20;2.83;;;2.63;;
19456;SDS011;9867;48.094;11.478;2023-07-29T01:18:55;2.83;;;2.53;;
19456;SDS011;9867;48.094;11.478;2023-07-29T01:21:27;3.60;;;2.70;;
19456;SDS011;9867;48.094;11.478;2023-07-29T01:23:59;3.10;;;2.80;;
19456;SDS011;9867;48.094;11.478;2023-07-29T01:26:27;4.00;;;2.73;;
19456;SDS011;9867;48.094;11.478;2023-07-29T01:28:55;4.63;;;2.50;;
19456;SDS011;9867;48.094;11.478;2023-07-29T01:31:27;3.73;;;2.83;;
19456;SDS011;9867;48.094;11.478;2023-07-29T01:34:06;3.60;;;2.80;;
19456;SDS011;9867;48.094;11.478;2023-07-29T01:36:43;2.63;;;2.43;;
19456;SDS011;9867;48.094;11.478;2023-07-29T01:39:15;2.70;;;2.50;;
19456;SDS011;9867;48.094;11.478;2023-07-29T01:41:44;3.60;;;2.57;;
19456;SDS011;9867;48.094;11.478;2023-07-29T01:44:13;3.60;;;3.07;;
19456;SDS011;9867;48.094;11.478;2023-07-29T01:46:42;2.80;;;2.37;;
19456;SDS011;9867;48.094;11.478;2023-07-29T01:49:11;2.87;;;2.67;;
19456;SDS011;9867;48.094;11.478;2023-07-29T01:51:39;3.73;;;2.70;;
19456;SDS011;9867;48.094;11.478;2023-07-29T01:54:07;2.70;;;2.50;;
19456;SDS011;9867;48.094;11.478;2023-07-29T01:56:36;2.80;;;2.60;;
19456;SDS011;9867;48.094;11.478;2023-07-29T01:59:05;3.90;;;2.60;;
19456;SDS011;9867;48.094;11.478;2023-07-29T02:01:33;3.13;;;2.60;;
19456;SDS011;9867;48.094;11.478;2023-07-29T02:04:01;3.10;;;2.80;;
19456;SDS011;9867;48.094;11.478;2023-07-29T02:06:29;2.80;;;2.60;;
19456;SDS011;9867;48.094;11.478;2023-07-29T02:08:57;3.00;;;2.80;;
19456;SDS011;9867;48.094;11.478;2023-07-29T02:11:25;2.90;;;2.60;;
19456;SDS011;9867;48.094;11.478;2023-07-29T02:13:56;3.07;;;2.57;;
19456;SDS011;9867;48.094;11.478;2023-07-29T02:16:25;3.03;;;2.63;;
19456;SDS011;9867;48.094;11.478;2023-07-29T02:18:53;3.23;;;2.70;;
19456;SDS011;9867;48.094;11.478;2023-07-29T02:21:22;3.07;;;2.77;;
19456;SDS011;9867;48.094;11.478;2023-07-29T02:23:50;2.77;;;2.57;;
19456;SDS011;9867;48.094;11.478;2023-07-29T02:26:18;2.63;;;2.43;;
19456;SDS011;9867;48.094;11.478;2023-07-29T02:28:46;2.50;;;2.30;;
19456;SDS011;9867;48.094;11.478;2023-07-29T02:31:16;2.70;;;2.50;;
19456;SDS011;9867;48.094;11.478;2023-07-29T02:33:45;2.87;;;2.57;;
19456;SDS011;9867;48.094;11.478;2023-07-29T02:36:16;2.53;;;2.30;;
19456;SDS011;9867;48.094;11.478;2023-07-29T02:38:45;2.63;;;2.43;;
19456;SDS011;9867;48.094;11.478;2023-07-29T02:41:13;3.00;;;2.70;;
19456;SDS011;9867;48.094;11.478;2023-07-29T02:43:43;2.87;;;2.67;;
19456;SDS011;9867;48.094;11.478;2023-07-29T02:46:16;4.23;;;2.73;;
19456;SDS011;9867;48.094;11.478;2023-07-29T02:48:45;2.73;;;2.53;;
19456;SDS011;9867;48.094;11.478;2023-07-29T02:51:13;2.50;;;2.30;;
19456;SDS011;9867;48.094;11.478;2023-07-29T02:53:41;2.57;;;2.37;;
19456;SDS011;9867;48.094;11.478;2023-07-29T02:56:11;2.73;;;2.53;;
19456;SDS011;9867;48.094;11.478;2023-07-29T02:58:40;2.87;;;2.67;;
19456;SDS011;9867;48.094;11.478;2023-07-29T03:01:08;2.40;;;2.20;;
19456;SDS011;9867;48.094;11.478;2023-07-29T03:03:38;3.00;;;2.50;;
19456;SDS011;9867;48.094;11.478;2023-07-29T03:06:07;2.80;;;2.60;;
19456;SDS011;9867;48.094;11.478;2023-07-29T03:08:37;2.77;;;2.57;;
19456;SDS011;9867;48.094;11.478;2023-07-29T03:11:05;3.27;;;2.90;;
19456;SDS011;9867;48.094;11.478;2023-07-29T03:13:34;2.50;;;2.30;;
19456;SDS011;9867;48.094;11.478;2023-07-29T03:16:06;2.87;;;2.50;;
19456;SDS011;9867;48.094;11.478;2023-07-29T03:18:35;3.83;;;2.50;;
19456;SDS011;9867;48.094;11.478;2023-07-29T03:21:05;2.60;;;2.40;;
19456;SDS011;9867;48.094;11.478;2023-07-29T03:23:33;2.50;;;2.30;;
19456;SDS011;9867;48.094;11.478;2023-07-29T03:26:02;5.00;;;2.83;;
19456;SDS011;9867;48.094;11.478;2023-07-29T03:28:37;4.03;;;2.47;;
19456;SDS011;9867;48.094;11.478;2023-07-29T03:31:06;2.70;;;2.50;;
19456;SDS011;9867;48.094;11.478;2023-07-29T03:33:35;3.57;;;2.40;;
19456;SDS011;9867;48.094;11.478;2023-07-29T03:36:03;2.43;;;2.23;;
19456;SDS011;9867;48.094;11.478;2023-07-29T03:38:32;2.87;;;2.67;;
19456;SDS011;9867;48.094;11.478;2023-07-29T03:41:02;2.70;;;2.30;;
19456;SDS011;9867;48.094;11.478;2023-07-29T03:43:30;2.43;;;2.23;;
19456;SDS011;9867;48.094;11.478;2023-07-29T03:46:00;2.57;;;2.37;;
19456;SDS011;9867;48.094;11.478;2023-07-29T03:48:28;4.33;;;2.40;;
19456;SDS011;9867;48.094;11.478;2023-07-29T03:50:58;4.23;;;2.30;;
19456;SDS011;9867;48.094;11.478;2023-07-29T03:53:27;2.47;;;2.27;;
19456;SDS011;9867;48.094;11.478;2023-07-29T03:55:55;3.17;;;2.30;;
19456;SDS011;9867;48.094;11.478;2023-07-29T03:58:23;3.10;;;2.47;;
19456;SDS011;9867;48.094;11.478;2023-07-29T04:00:51;4.27;;;2.40;;
19456;SDS011;9867;48.094;11.478;2023-07-29T04:03:22;2.40;;;2.20;;
19456;SDS011;9867;48.094;11.478;2023-07-29T04:05:51;2.60;;;2.40;;
19456;SDS011;9867;48.094;11.478;2023-07-29T04:08:19;2.57;;;2.23;;
19456;SDS011;9867;48.094;11.478;2023-07-29T04:10:49;2.67;;;2.40;;
19456;SDS011;9867;48.094;11.478;2023-07-29T04:13:17;2.70;;;2.50;;
19456;SDS011;9867;48.094;11.478;2023-07-29T04:15:48;2.50;;;2.33;;
19456;SDS011;9867;48.094;11.478;2023-07-29T04:18:16;2.20;;;2.10;;
19456;SDS011;9867;48.094;11.478;2023-07-29T04:20:46;3.10;;;2.80;;
19456;SDS011;9867;48.094;11.478;2023-07-29T04:23:14;3.97;;;2.67;;
19456;SDS011;9867;48.094;11.478;2023-07-29T04:25:42;2.87;;;2.60;;
19456;SDS011;9867;48.094;11.478;2023-07-29T04:28:11;2.90;;;2.60;;
19456;SDS011;9867;48.094;11.478;2023-07-29T04:30:39;2.43;;;2.20;;
19456;SDS011;9867;48.094;11.478;2023-07-29T04:33:07;2.97;;;2.60;;
19456;SDS011;9867;48.094;11.478;2023-07-29T04:35:36;2.60;;;2.40;;
19456;SDS011;9867;48.094;11.478;2023-07-29T04:38:04;2.70;;;2.50;;
19456;SDS011;9867;48.094;11.478;2023-07-29T04:40:32;2.70;;;2.50;;
19456;SDS011;9867;48.094;11.478;2023-07-29T04:43:01;2.40;;;2.30;;
19456;SDS011;9867;48.094;11.478;2023-07-29T04:45:30;2.60;;;2.40;;
19456;SDS011;9867;48.094;11.478;2023-07-29T04:47:59;2.40;;;2.20;;
19456;SDS011;9867;48.094;11.478;2023-07-29T04:50:27;2.27;;;2.07;;
19456;SDS011;9867;48.094;11.478;2023-07-29T04:52:56;2.77;;;2.47;;
19456;SDS011;9867;48.094;11.478;2023-07-29T04:55:24;2.87;;;2.67;;
19456;SDS011;9867;48.094;11.478;2023-07-29T04:57:52;3.20;;;2.40;;
19456;SDS011;9867;48.094;11.478;2023-07-29T05:00:20;1.90;;;1.80;;
19456;SDS011;9867;48.094;11.478;2023-07-29T05:02:49;2.43;;;2.30;;
19456;SDS011;9867;48.094;11.478;2023-07-29T05:05:18;2.37;;;2.10;;
19456;SDS011;9867;48.094;11.478;2023-07-29T05:07:46;2.87;;;2.13;;
19456;SDS011;9867;48.094;11.478;2023-07-29T05:10:14;2.33;;;2.13;;
19456;SDS011;9867;48.094;11.478;2023-07-29T05:12:42;3.90;;;2.20;;
19456;SDS011;9867;48.094;11.478;2023-07-29T05:15:10;2.17;;;2.07;;
19456;SDS011;9867;48.094;11.478;2023-07-29T05:17:38;2.73;;;2.37;;
19456;SDS011;9867;48.094;11.478;2023-07-29T05:20:08;2.43;;;2.10;;
19456;SDS011;9867;48.094;11.478;2023-07-29T05:22:37;2.73;;;2.17;;
19456;SDS011;9867;48.094;11.478;2023-07-29T05:25:05;2.23;;;2.07;;
19456;SDS011;9867;48.094;11.478;2023-07-29T05:27:34;2.27;;;2.07;;
19456;SDS011;9867;48.094;11.478;2023-07-29T05:30:02;4.27;;;2.10;;
19456;SDS011;9867;48.094;11.478;2023-07-29T05:32:30;2.30;;;2.10;;
19456;SDS011;9867;48.094;11.478;2023-07-29T05:34:58;2.00;;;1.83;;
19456;SDS011;9867;48.094;11.478;2023-07-29T05:37:28;2.03;;;1.93;;
19456;SDS011;9867;48.094;11.478;2023-07-29T05:39:56;2.27;;;2.07;;
19456;SDS011;9867;48.094;11.478;2023-07-29T05:42:24;2.13;;;2.00;;
19456;SDS011;9867;48.094;11.478;2023-07-29T05:44:51;3.33;;;2.10;;
19456;SDS011;9867;48.094;11.478;2023-07-29T05:47:19;2.47;;;2.17;;
19456;SDS011;9867;48.094;11.478;2023-07-29T05:49:47;2.37;;;2.03;;
19456;SDS011;9867;48.094;11.478;2023-07-29T05:52:15;2.23;;;2.10;;
19456;SDS011;9867;48.094;11.478;2023-07-29T05:54:45;1.87;;;1.77;;
19456;SDS011;9867;48.094;11.478;2023-07-29T05:57:13;2.40;;;2.20;;
19456;SDS011;9867;48.094;11.478;2023-07-29T05:59:41;3.53;;;2.10;;
19456;SDS011;9867;48.094;11.478;2023-07-29T06:02:09;3.10;;;2.20;;
19456;SDS011;9867;48.094;11.478;2023-07-29T06:04:36;7.20;;;2.50;;
19456;SDS011;9867;48.094;11.478;2023-07-29T06:07:06;2.60;;;2.40;;
19456;SDS011;9867;48.094;11.478;2023-07-29T06:09:34;4.30;;;2.33;;
19456;SDS011;9867;48.094;11.478;2023-07-29T06:12:04;2.50;;;2.30;;
19456;SDS011;9867;48.094;11.478;2023-07-29T06:14:32;3.90;;;2.40;;
19456;SDS011;9867;48.094;11.478;2023-07-29T06:17:00;2.20;;;2.00;;
19456;SDS011;9867;48.094;11.478;2023-07-29T06:19:28;3.57;;;2.30;;
19456;SDS011;9867;48.094;11.478;2023-07-29T06:21:56;3.17;;;2.30;;
19456;SDS011;9867;48.094;11.478;2023-07-29T06:24:24;2.83;;;2.30;;
19456;SDS011;9867;48.094;11.478;2023-07-29T06:26:52;3.17;;;2.10;;
19456;SDS011;9867;48.094;11.478;2023-07-29T06:29:21;4.33;;;2.50;;
19456;SDS011;9867;48.094;11.478;2023-07-29T06:31:49;2.63;;;2.00;;
19456;SDS011;9867;48.094;11.478;2023-07-29T06:34:18;2.67;;;2.13;;
19456;SDS011;9867;48.094;11.478;2023-07-29T06:36:46;3.47;;;1.93;;
19456;SDS011;9867;48.094;11.478;2023-07-29T06:39:14;2.40;;;2.20;;
19456;SDS011;9867;48.094;11.478;2023-07-29T06:41:42;2.30;;;2.10;;
19456;SDS011;9867;48.094;11.478;2023-07-29T06:44:12;2.10;;;2.00;;
19456;SDS011;9867;48.094;11.478;2023-07-29T06:46:41;3.57;;;2.40;;
19456;SDS011;9867;48.094;11.478;2023-07-29T06:49:09;2.43;;;2.23;;
19456;SDS011;9867;48.094;11.478;2023-07-29T06:51:37;2.97;;;2.67;;
19456;SDS011;9867;48.094;11.478;2023-07-29T06:54:05;3.47;;;2.60;;
19456;SDS011;9867;48.094;11.478;2023-07-29T06:56:33;2.70;;;2.50;;
19456;SDS011;9867;48.094;11.478;2023-07-29T06:59:01;4.00;;;2.70;;
19456;SDS011;9867;48.094;11.478;2023-07-29T07:01:29;3.03;;;2.70;;
19456;SDS011;9867;48.094;11.478;2023-07-29T07:03:58;3.37;;;2.50;;
19456;SDS011;9867;48.094;11.478;2023-07-29T07:06:27;4.63;;;2.70;;
19456;SDS011;9867;48.094;11.478;2023-07-29T07:08:54;3.00;;;2.70;;
19456;SDS011;9867;48.094;11.478;2023-07-29T07:11:22;3.23;;;2.37;;
19456;SDS011;9867;48.094;11.478;2023-07-29T07:13:50;3.10;;;2.50;;
19456;SDS011;9867;48.094;11.478;2023-07-29T07:16:18;2.60;;;2.40;;
19456;SDS011;9867;48.094;11.478;2023-07-29T07:18:46;4.50;;;2.90;;
19456;SDS011;9867;48.094;11.478;2023-07-29T07:21:15;3.10;;;2.83;;
19456;SDS011;9867;48.094;11.478;2023-07-29T07:23:44;2.93;;;2.67;;
19456;SDS011;9867;48.094;11.478;2023-07-29T07:26:12;4.27;;;2.93;;
19456;SDS011;9867;48.094;11.478;2023-07-29T07:28:39;3.30;;;3.00;;
19456;SDS011;9867;48.094;11.478;2023-07-29T07:31:07;3.23;;;2.97;;
19456;SDS011;9867;48.094;11.478;2023-07-29T07:33:35;5.57;;;3.20;;
19456;SDS011;9867;48.094;11.478;2023-07-29T07:36:06;2.80;;;2.60;;
19456;SDS011;9867;48.094;11.478;2023-07-29T07:38:35;3.23;;;2.93;;
19456;SDS011;9867;48.094;11.478;2023-07-29T07:41:03;3.57;;;2.80;;
19456;SDS011;9867;48.094;11.478;2023-07-29T07:43:31;3.13;;;2.90;;
19456;SDS011;9867;48.094;11.478;2023-07-29T07:45:59;3.00;;;2.80;;
19456;SDS011;9867;48.094;11.478;2023-07-29T07:48:28;3.37;;;3.07;;
19456;SDS011;9867;48.094;11.478;2023-07-29T07:50:56;4.83;;;3.10;;
19456;SDS011;9867;48.094;11.478;2023-07-29T07:53:24;2.80;;;2.60;;
19456;SDS011;9867;48.094;11.478;2023-07-29T07:55:54;2.93;;;2.70;;
19456;SDS011;9867;48.094;11.478;2023-07-29T07:58:22;3.50;;;3.20;;
19456;SDS011;9867;48.094;11.478;2023-07-29T08:00:50;3.73;;;2.80;;
19456;SDS011;9867;48.094;11.478;2023-07-29T08:03:18;3.47;;;2.73;;
19456;SDS011;9867;48.094;11.478;2023-07-29T08:05:46;4.67;;;3.00;;
19456;SDS011;9867;48.094;11.478;2023-07-29T08:08:16;4.30;;;3.00;;
19456;SDS011;9867;48.094;11.478;2023-07-29T08:10:46;4.00;;;3.03;;
19456;SDS011;9867;48.094;11.478;2023-07-29T08:13:18;3.90;;;2.73;;
19456;SDS011;9867;48.094;11.478;2023-07-29T08:15:47;3.37;;;2.67;;
19456;SDS011;9867;48.094;11.478;2023-07-29T08:18:16;3.10;;;2.80;;
19456;SDS011;9867;48.094;11.478;2023-07-29T08:20:51;3.27;;;2.90;;
19456;SDS011;9867;48.094;11.478;2023-07-29T08:23:21;3.57;;;2.90;;
19456;SDS011;9867;48.094;11.478;2023-07-29T08:25:51;3.27;;;2.73;;
19456;SDS011;9867;48.094;11.478;2023-07-29T08:28:22;4.43;;;3.10;;
19456;SDS011;9867;48.094;11.478;2023-07-29T08:30:50;3.97;;;2.70;;
19456;SDS011;9867;48.094;11.478;2023-07-29T08:33:21;2.80;;;2.60;;
19456;SDS011;9867;48.094;11.478;2023-07-29T08:35:49;3.07;;;2.80;;
19456;SDS011;9867;48.094;11.478;2023-07-29T08:38:17;4.20;;;3.07;;
19456;SDS011;9867;48.094;11.478;2023-07-29T08:40:46;3.00;;;2.70;;
19456;SDS011;9867;48.094;11.478;2023-07-29T08:43:22;2.90;;;2.70;;
19456;SDS011;9867;48.094;11.478;2023-07-29T08:45:55;2.97;;;2.70;;
19456;SDS011;9867;48.094;11.478;2023-07-29T08:48:28;2.60;;;2.40;;
19456;SDS011;9867;48.094;11.478;2023-07-29T08:50:59;3.00;;;2.80;;
19456;SDS011;9867;48.094;11.478;2023-07-29T08:53:30;3.00;;;2.70;;
19456;SDS011;9867;48.094;11.478;2023-07-29T08:55:59;4.20;;;2.43;;
19456;SDS011;9867;48.094;11.478;2023-07-29T08:58:28;3.20;;;2.90;;
19456;SDS011;9867;48.094;11.478;2023-07-29T09:00:59;2.97;;;2.60;;
19456;SDS011;9867;48.094;11.478;2023-07-29T09:03:28;5.37;;;2.73;;
19456;SDS011;9867;48.094;11.478;2023-07-29T09:05:56;3.73;;;3.10;;
19456;SDS011;9867;48.094;11.478;2023-07-29T09:08:24;3.63;;;3.00;;
19456;SDS011;9867;48.094;11.478;2023-07-29T09:10:53;3.30;;;3.00;;
19456;SDS011;9867;48.094;11.478;2023-07-29T09:13:23;3.40;;;3.10;;
19456;SDS011;9867;48.094;11.478;2023-07-29T09:15:55;3.40;;;3.03;;
19456;SDS011;9867;48.094;11.478;2023-07-29T09:18:25;3.40;;;3.10;;
19456;SDS011;9867;48.094;11.478;2023-07-29T09:20:54;3.37;;;3.07;;
19456;SDS011;9867;48.094;11.478;2023-07-29T09:23:26;3.47;;;3.07;;
19456;SDS011;9867;48.094;11.478;2023-07-29T09:26:00;3.20;;;2.90;;
19456;SDS011;9867;48.094;11.478;2023-07-29T09:28:32;4.83;;;3.17;;
19456;SDS011;9867;48.094;11.478;2023-07-29T09:31:03;4.10;;;3.13;;
19456;SDS011;9867;48.094;11.478;2023-07-29T09:33:33;3.20;;;3.00;;
19456;SDS011;9867;48.094;11.478;2023-07-29T09:36:08;2.93;;;2.73;;
19456;SDS011;9867;48.094;11.478;2023-07-29T09:38:37;3.20;;;2.93;;
19456;SDS011;9867;48.094;11.478;2023-07-29T09:41:05;3.50;;;3.20;;
19456;SDS011;9867;48.094;11.478;2023-07-29T09:43:34;3.07;;;2.87;;
19456;SDS011;9867;48.094;11.478;2023-07-29T09:46:04;3.40;;;3.10;;
19456;SDS011;9867;48.094;11.478;2023-07-29T09:48:34;4.20;;;3.20;;
19456;SDS011;9867;48.094;11.478;2023-07-29T09:51:09;3.40;;;3.10;;
19456;SDS011;9867;48.094;11.478;2023-07-29T09:53:41;3.47;;;3.17;;
19456;SDS011;9867;48.094;11.478;2023-07-29T09:56:13;3.30;;;3.07;;
19456;SDS011;9867;48.094;11.478;2023-07-29T09:58:42;3.40;;;3.03;;
19456;SDS011;9867;48.094;11.478;2023-07-29T10:01:13;3.63;;;3.33;;
19456;SDS011;9867;48.094;11.478;2023-07-29T10:03:42;3.63;;;3.27;;
19456;SDS011;9867;48.094;11.478;2023-07-29T10:06:11;3.47;;;3.17;;
19456;SDS011;9867;48.094;11.478;2023-07-29T10:08:42;3.37;;;3.13;;
19456;SDS011;9867;48.094;11.478;2023-07-29T10:11:14;3.87;;;3.40;;
19456;SDS011;9867;48.094;11.478;2023-07-29T10:13:43;3.07;;;2.77;;
19456;SDS011;9867;48.094;11.478;2023-07-29T10:16:31;3.93;;;3.40;;
19456;SDS011;9867;48.094;11.478;2023-07-29T10:19:13;3.27;;;2.80;;
19456;SDS011;9867;48.094;11.478;2023-07-29T10:21:44;3.40;;;3.10;;
19456;SDS011;9867;48.094;11.478;2023-07-29T10:24:18;5.10;;;3.10;;
19456;SDS011;9867;48.094;11.478;2023-07-29T10:26:56;3.33;;;3.03;;
19456;SDS011;9867;48.094;11.478;2023-07-29T10:29:29;3.27;;;2.97;;
19456;SDS011;9867;48.094;11.478;2023-07-29T10:32:02;3.23;;;2.93;;
19456;SDS011;9867;48.094;11.478;2023-07-29T10:34:32;3.10;;;2.90;;
19456;SDS011;9867;48.094;11.478;2023-07-29T10:37:02;3.00;;;2.80;;
19456;SDS011;9867;48.094;11.478;2023-07-29T10:39:33;3.60;;;2.80;;
19456;SDS011;9867;48.094;11.478;2023-07-29T10:42:06;3.43;;;2.83;;
19456;SDS011;9867;48.094;11.478;2023-07-29T10:44:50;3.57;;;3.00;;
19456;SDS011;9867;48.094;11.478;2023-07-29T10:47:22;3.10;;;2.90;;
19456;SDS011;9867;48.094;11.478;2023-07-29T10:49:52;2.97;;;2.73;;
19456;SDS011;9867;48.094;11.478;2023-07-29T10:52:29;2.97;;;2.77;;
19456;SDS011;9867;48.094;11.478;2023-07-29T10:54:58;3.13;;;2.93;;
19456;SDS011;9867;48.094;11.478;2023-07-29T10:57:31;3.30;;;3.10;;
19456;SDS011;9867;48.094;11.478;2023-07-29T11:00:00;5.37;;;3.00;;
19456;SDS011;9867;48.094;11.478;2023-07-29T11:02:31;3.47;;;3.10;;
19456;SDS011;9867;48.094;11.478;2023-07-29T11:05:06;3.20;;;2.90;;
19456;SDS011;9867;48.094;11.478;2023-07-29T11:07:45;4.27;;;3.17;;
19456;SDS011;9867;48.094;11.478;2023-07-29T11:10:13;3.10;;;2.90;;
19456;SDS011;9867;48.094;11.478;2023-07-29T11:12:48;3.00;;;2.80;;
19456;SDS011;9867;48.094;11.478;2023-07-29T11:15:21;3.27;;;2.93;;
19456;SDS011;9867;48.094;11.478;2023-07-29T11:17:52;3.10;;;2.80;;
19456;SDS011;9867;48.094;11.478;2023-07-29T11:20:21;3.00;;;2.80;;
19456;SDS011;9867;48.094;11.478;2023-07-29T11:22:53;3.37;;;2.57;;
19456;SDS011;9867;48.094;11.478;2023-07-29T11:25:23;2.80;;;2.60;;
19456;SDS011;9867;48.094;11.478;2023-07-29T11:27:52;2.60;;;2.40;;
19456;SDS011;9867;48.094;11.478;2023-07-29T11:30:22;2.97;;;2.00;;
19456;SDS011;9867;48.094;11.478;2023-07-29T11:32:54;2.20;;;2.10;;
19456;SDS011;9867;48.094;11.478;2023-07-29T11:35:23;2.13;;;1.90;;
19456;SDS011;9867;48.094;11.478;2023-07-29T11:37:54;2.30;;;2.20;;
19456;SDS011;9867;48.094;11.478;2023-07-29T11:40:26;2.30;;;2.10;;
19456;SDS011;9867;48.094;11.478;2023-07-29T11:42:54;2.17;;;2.07;;
19456;SDS011;9867;48.094;11.478;2023-07-29T11:45:22;2.07;;;1.97;;
19456;SDS011;9867;48.094;11.478;2023-07-29T11:48:02;3.13;;;2.10;;
19456;SDS011;9867;48.094;11.478;2023-07-29T11:50:30;4.33;;;2.40;;
19456;SDS011;9867;48.094;11.478;2023-07-29T11:52:58;2.63;;;2.40;;
19456;SDS011;9867;48.094;11.478;2023-07-29T11:55:27;2.40;;;2.20;;
19456;SDS011;9867;48.094;11.478;2023-07-29T11:57:55;2.57;;;2.30;;
19456;SDS011;9867;48.094;11.478;2023-07-29T12:00:25;2.30;;;2.20;;
19456;SDS011;9867;48.094;11.478;2023-07-29T12:02:53;3.90;;;2.60;;
19456;SDS011;9867;48.094;11.478;2023-07-29T12:05:23;3.23;;;2.73;;
19456;SDS011;9867;48.094;11.478;2023-07-29T12:07:52;2.70;;;2.50;;
19456;SDS011;9867;48.094;11.478;2023-07-29T12:10:20;2.53;;;2.33;;
19456;SDS011;9867;48.094;11.478;2023-07-29T12:12:49;2.77;;;2.50;;
19456;SDS011;9867;48.094;11.478;2023-07-29T12:15:24;2.70;;;2.50;;
19456;SDS011;9867;48.094;11.478;2023-07-29T12:17:54;3.23;;;2.40;;
19456;SDS011;9867;48.094;11.478;2023-07-29T12:20:26;2.60;;;2.40;;
19456;SDS011;9867;48.094;11.478;2023-07-29T12:22:55;2.80;;;2.50;;
19456;SDS011;9867;48.094;11.478;2023-07-29T12:25:24;2.60;;;2.40;;
19456;SDS011;9867;48.094;11.478;2023-07-29T12:27:53;3.13;;;2.70;;
19456;SDS011;9867;48.094;11.478;2023-07-29T12:30:21;3.37;;;2.60;;
19456;SDS011;9867;48.094;11.478;2023-07-29T12:32:51;2.73;;;2.53;;
19456;SDS011;9867;48.094;11.478;2023-07-29T12:35:19;2.57;;;2.37;;
19456;SDS011;9867;48.094;11.478;2023-07-29T12:37:58;2.73;;;2.53;;
19456;SDS011;9867;48.094;11.478;2023-07-29T12:40:27;2.57;;;2.43;;
19456;SDS011;9867;48.094;11.478;2023-07-29T12:42:57;2.83;;;2.63;;
19456;SDS011;9867;48.094;11.478;2023-07-29T12:45:25;2.87;;;2.50;;
19456;SDS011;9867;48.094;11.478;2023-07-29T12:47:55;3.07;;;2.87;;
19456;SDS011;9867;48.094;11.478;2023-07-29T12:50:23;3.20;;;2.90;;
19456;SDS011;9867;48.094;11.478;2023-07-29T12:52:52;2.73;;;2.43;;
19456;SDS011;9867;48.094;11.478;2023-07-29T12:55:21;3.30;;;3.00;;
19456;SDS011;9867;48.094;11.478;2023-07-29T12:57:49;3.77;;;3.00;;
19456;SDS011;9867;48.094;11.478;2023-07-29T13:00:18;2.93;;;2.73;;
19456;SDS011;9867;48.094;11.478;2023-07-29T13:02:46;3.27;;;2.97;;
19456;SDS011;9867;48.094;11.478;2023-07-29T13:05:14;2.83;;;2.63;;
19456;SDS011;9867;48.094;11.478;2023-07-29T13:07:42;3.20;;;3.00;;
19456;SDS011;9867;48.094;11.478;2023-07-29T13:10:11;4.20;;;3.60;;
19456;SDS011;9867;48.094;11.478;2023-07-29T13:12:43;19.67;;;4.27;;
19456;SDS011;9867;48.094;11.478;2023-07-29T13:15:12;0.00;;;0.00;;
19456;SDS011;9867;48.094;11.478;2023-07-29T13:17:40;0.00;;;0.00;;
19456;SDS011;9867;48.094;11.478;2023-07-29T13:20:08;0.00;;;0.00;;
19456;SDS011;9867;48.094;11.478;2023-07-29T13:22:36;0.00;;;0.00;;
19456;SDS011;9867;48.094;11.478;2023-07-29T13:25:05;0.00;;;0.00;;
19456;SDS011;9867;48.094;11.478;2023-07-29T13:27:36;0.00;;;0.00;;
19456;SDS011;9867;48.094;11.478;2023-07-29T13:30:06;0.00;;;0.00;;
19456;SDS011;9867;48.094;11.478;2023-07-29T13:32:35;0.00;;;0.00;;
19456;SDS011;9867;48.094;11.478;2023-07-29T13:35:03;0.00;;;0.00;;
19456;SDS011;9867;48.094;11.478;2023-07-29T13:37:31;0.00;;;0.00;;
19456;SDS011;9867;48.094;11.478;2023-07-29T13:40:00;0.00;;;0.00;;
19456;SDS011;9867;48.094;11.478;2023-07-29T13:42:28;0.00;;;0.00;;
19456;SDS011;9867;48.094;11.478;2023-07-29T13:44:56;0.00;;;0.00;;
19456;SDS011;9867;48.094;11.478;2023-07-29T13:47:25;0.00;;;0.00;;
19456;SDS011;9867;48.094;11.478;2023-07-29T13:49:53;0.00;;;0.00;;
19456;SDS011;9867;48.094;11.478;2023-07-29T13:52:21;0.00;;;0.00;;
19456;SDS011;9867;48.094;11.478;2023-07-29T13:54:49;0.00;;;0.00;;
19456;SDS011;9867;48.094;11.478;2023-07-29T13:57:17;0.00;;;0.00;;
19456;SDS011;9867;48.094;11.478;2023-07-29T13:59:45;0.00;;;0.00;;
19456;SDS011;9867;48.094;11.478;2023-07-29T14:02:13;9.43;;;2.70;;
19456;SDS011;9867;48.094;11.478;2023-07-29T14:04:42;0.00;;;0.00;;
19456;SDS011;9867;48.094;11.478;2023-07-29T14:07:10;0.37;;;0.37;;
19456;SDS011;9867;48.094;11.478;2023-07-29T14:09:38;0.00;;;0.00;;
19456;SDS011;9867;48.094;11.478;2023-07-29T14:12:07;0.00;;;0.00;;
19456;SDS011;9867;48.094;11.478;2023-07-29T14:14:38;0.00;;;0.00;;
19456;SDS011;9867;48.094;11.478;2023-07-29T14:17:06;0.00;;;0.00;;
19456;SDS011;9867;48.094;11.478;2023-07-29T14:19:34;0.00;;;0.00;;
19456;SDS011;9867;48.094;11.478;2023-07-29T14:22:05;0.00;;;0.00;;
19456;SDS011;9867;48.094;11.478;2023-07-29T14:24:33;0.10;;;0.10;;
19456;SDS011;9867;48.094;11.478;2023-07-29T14:27:01;0.00;;;0.00;;
19456;SDS011;9867;48.094;11.478;2023-07-29T14:29:29;0.00;;;0.00;;
19456;SDS011;9867;48.094;11.478;2023-07-29T14:31:57;0.00;;;0.00;;
19456;SDS011;9867;48.094;11.478;2023-07-29T14:34:25;0.00;;;0.00;;
19456;SDS011;9867;48.094;11.478;2023-07-29T14:36:53;0.00;;;0.00;;
19456;SDS011;9867;48.094;11.478;2023-07-29T14:39:22;0.30;;;0.30;;
19456;SDS011;9867;48.094;11.478;2023-07-29T14:41:50;0.40;;;0.40;;
19456;SDS011;9867;48.094;11.478;2023-07-29T14:44:18;0.00;;;0.00;;
19456;SDS011;9867;48.094;11.478;2023-07-29T14:46:46;0.00;;;0.00;;
19456;SDS011;9867;48.094;11.478;2023-07-29T14:49:14;0.00;;;0.00;;
19456;SDS011;9867;48.094;11.478;2023-07-29T14:51:42;0.00;;;0.00;;
19456;SDS011;9867;48.094;11.478;2023-07-29T14:54:10;0.00;;;0.00;;
19456;SDS011;9867;48.094;11.478;2023-07-29T14:56:39;0.00;;;0.00;;
19456;SDS011;9867;48.094;11.478;2023-07-29T14:59:07;0.00;;;0.00;;
19456;SDS011;9867;48.094;11.478;2023-07-29T15:01:35;0.00;;;0.00;;